sensor_id;sensor_type;location;lat;lon;timestamp;P1;durP1;ratioP1;P2;durP2;ratioP2
35667;SDS011;22158;59.280;17.806;2022-11-20T00:00:57;3.88;;;2.58;;
35667;SDS011;22158;59.280;17.806;2022-11-20T00:03:28;3.47;;;2.45;;
35667;SDS011;22158;59.280;17.806;2022-11-20T00:05:58;3.95;;;2.80;;
35667;SDS011;22158;59.280;17.806;2022-11-20T00:08:35;4.00;;;2.60;;
35667;SDS011;22158;59.280;17.806;2022-11-20T00:11:04;4.70;;;3.03;;
35667;SDS011;22158;59.280;17.806;2022-11-20T00:13:35;3.85;;;3.03;;
35667;SDS011;22158;59.280;17.806;2022-11-20T00:16:02;4.88;;;3.65;;
35667;SDS011;22158;59.280;17.806;2022-11-20T00:18:28;4.43;;;3.17;;
35667;SDS011;22158;59.280;17.806;2022-11-20T00:21:04;5.55;;;3.10;;
35667;SDS011;22158;59.280;17.806;2022-11-20T00:23:32;5.22;;;3.45;;
35667;SDS011;22158;59.280;17.806;2022-11-20T00:26:05;3.80;;;2.95;;
35667;SDS011;22158;59.280;17.806;2022-11-20T00:28:32;5.63;;;3.60;;
35667;SDS011;22158;59.280;17.806;2022-11-20T00:31:02;4.63;;;2.90;;
35667;SDS011;22158;59.280;17.806;2022-11-20T00:33:29;3.78;;;3.17;;
35667;SDS011;22158;59.280;17.806;2022-11-20T00:35:59;7.32;;;3.58;;
35667;SDS011;22158;59.280;17.806;2022-11-20T00:38:29;4.32;;;3.22;;
35667;SDS011;22158;59.280;17.806;2022-11-20T00:40:56;7.38;;;3.78;;
35667;SDS011;22158;59.280;17.806;2022-11-20T00:43:26;5.80;;;3.65;;
35667;SDS011;22158;59.280;17.806;2022-11-20T00:45:56;7.18;;;3.80;;
35667;SDS011;22158;59.280;17.806;2022-11-20T00:48:26;7.28;;;3.05;;
35667;SDS011;22158;59.280;17.806;2022-11-20T00:50:51;5.05;;;3.10;;
35667;SDS011;22158;59.280;17.806;2022-11-20T00:53:17;7.50;;;3.08;;
35667;SDS011;22158;59.280;17.806;2022-11-20T00:55:43;6.95;;;3.65;;
35667;SDS011;22158;59.280;17.806;2022-11-20T00:58:21;3.97;;;2.70;;
35667;SDS011;22158;59.280;17.806;2022-11-20T01:00:47;4.57;;;3.20;;
35667;SDS011;22158;59.280;17.806;2022-11-20T01:03:14;5.80;;;2.95;;
35667;SDS011;22158;59.280;17.806;2022-11-20T01:05:41;4.40;;;2.80;;
35667;SDS011;22158;59.280;17.806;2022-11-20T01:08:07;6.35;;;3.03;;
35667;SDS011;22158;59.280;17.806;2022-11-20T01:10:33;4.13;;;3.22;;
35667;SDS011;22158;59.280;17.806;2022-11-20T01:12:58;4.70;;;2.45;;
35667;SDS011;22158;59.280;17.806;2022-11-20T01:15:42;5.90;;;3.50;;
35667;SDS011;22158;59.280;17.806;2022-11-20T01:18:08;3.47;;;2.67;;
35667;SDS011;22158;59.280;17.806;2022-11-20T01:20:37;3.83;;;2.63;;
35667;SDS011;22158;59.280;17.806;2022-11-20T01:23:03;8.27;;;2.80;;
35667;SDS011;22158;59.280;17.806;2022-11-20T01:25:29;4.70;;;2.97;;
35667;SDS011;22158;59.280;17.806;2022-11-20T01:27:55;6.10;;;2.90;;
35667;SDS011;22158;59.280;17.806;2022-11-20T01:30:20;3.85;;;3.03;;
35667;SDS011;22158;59.280;17.806;2022-11-20T01:32:46;3.55;;;2.40;;
35667;SDS011;22158;59.280;17.806;2022-11-20T01:35:12;6.07;;;2.60;;
35667;SDS011;22158;59.280;17.806;2022-11-20T01:37:37;5.18;;;2.80;;
35667;SDS011;22158;59.280;17.806;2022-11-20T01:40:03;4.53;;;3.08;;
35667;SDS011;22158;59.280;17.806;2022-11-20T01:42:29;3.47;;;2.38;;
35667;SDS011;22158;59.280;17.806;2022-11-20T01:48:18;3.83;;;2.65;;
35667;SDS011;22158;59.280;17.806;2022-11-20T01:50:45;4.75;;;2.58;;
35667;SDS011;22158;59.280;17.806;2022-11-20T01:53:12;4.40;;;2.28;;
35667;SDS011;22158;59.280;17.806;2022-11-20T01:55:42;2.97;;;2.38;;
35667;SDS011;22158;59.280;17.806;2022-11-20T01:58:10;4.65;;;2.33;;
35667;SDS011;22158;59.280;17.806;2022-11-20T02:00:37;6.53;;;2.55;;
35667;SDS011;22158;59.280;17.806;2022-11-20T02:03:09;4.88;;;2.58;;
35667;SDS011;22158;59.280;17.806;2022-11-20T02:08:12;10.73;;;3.15;;
35667;SDS011;22158;59.280;17.806;2022-11-20T02:10:38;5.60;;;3.28;;
35667;SDS011;22158;59.280;17.806;2022-11-20T02:13:04;3.50;;;2.55;;
35667;SDS011;22158;59.280;17.806;2022-11-20T02:15:49;3.65;;;2.53;;
35667;SDS011;22158;59.280;17.806;2022-11-20T02:18:16;5.07;;;3.00;;
35667;SDS011;22158;59.280;17.806;2022-11-20T02:20:44;4.35;;;2.50;;
35667;SDS011;22158;59.280;17.806;2022-11-20T02:23:13;3.53;;;2.78;;
35667;SDS011;22158;59.280;17.806;2022-11-20T02:25:41;3.42;;;2.38;;
35667;SDS011;22158;59.280;17.806;2022-11-20T02:28:08;4.53;;;2.75;;
35667;SDS011;22158;59.280;17.806;2022-11-20T02:30:35;6.10;;;2.38;;
35667;SDS011;22158;59.280;17.806;2022-11-20T02:33:00;5.05;;;2.30;;
35667;SDS011;22158;59.280;17.806;2022-11-20T02:37:52;6.72;;;2.90;;
35667;SDS011;22158;59.280;17.806;2022-11-20T02:40:20;5.95;;;2.63;;
35667;SDS011;22158;59.280;17.806;2022-11-20T02:42:47;3.15;;;2.58;;
35667;SDS011;22158;59.280;17.806;2022-11-20T02:45:13;3.38;;;2.58;;
35667;SDS011;22158;59.280;17.806;2022-11-20T02:47:39;3.63;;;2.65;;
35667;SDS011;22158;59.280;17.806;2022-11-20T02:50:05;7.70;;;2.80;;
35667;SDS011;22158;59.280;17.806;2022-11-20T02:52:31;4.03;;;2.40;;
35667;SDS011;22158;59.280;17.806;2022-11-20T02:54:56;3.30;;;2.47;;
35667;SDS011;22158;59.280;17.806;2022-11-20T02:57:22;3.63;;;2.38;;
35667;SDS011;22158;59.280;17.806;2022-11-20T02:59:48;3.80;;;2.22;;
35667;SDS011;22158;59.280;17.806;2022-11-20T03:02:13;3.78;;;2.53;;
35667;SDS011;22158;59.280;17.806;2022-11-20T03:04:39;5.38;;;2.67;;
35667;SDS011;22158;59.280;17.806;2022-11-20T03:07:05;3.33;;;2.10;;
35667;SDS011;22158;59.280;17.806;2022-11-20T03:09:30;4.60;;;2.50;;
35667;SDS011;22158;59.280;17.806;2022-11-20T03:11:56;3.33;;;2.38;;
35667;SDS011;22158;59.280;17.806;2022-11-20T03:14:22;4.57;;;2.53;;
35667;SDS011;22158;59.280;17.806;2022-11-20T03:16:47;4.63;;;2.35;;
35667;SDS011;22158;59.280;17.806;2022-11-20T03:19:13;3.38;;;2.05;;
35667;SDS011;22158;59.280;17.806;2022-11-20T03:21:39;2.85;;;2.20;;
35667;SDS011;22158;59.280;17.806;2022-11-20T03:24:05;3.63;;;2.10;;
35667;SDS011;22158;59.280;17.806;2022-11-20T03:26:31;6.30;;;2.72;;
35667;SDS011;22158;59.280;17.806;2022-11-20T03:28:57;3.03;;;2.10;;
35667;SDS011;22158;59.280;17.806;2022-11-20T03:31:29;3.45;;;2.10;;
35667;SDS011;22158;59.280;17.806;2022-11-20T03:33:56;4.13;;;2.72;;
35667;SDS011;22158;59.280;17.806;2022-11-20T03:36:23;2.90;;;2.08;;
35667;SDS011;22158;59.280;17.806;2022-11-20T03:38:49;2.90;;;2.08;;
35667;SDS011;22158;59.280;17.806;2022-11-20T03:41:19;2.90;;;2.05;;
35667;SDS011;22158;59.280;17.806;2022-11-20T03:43:48;5.70;;;2.38;;
35667;SDS011;22158;59.280;17.806;2022-11-20T03:46:14;3.35;;;2.05;;
35667;SDS011;22158;59.280;17.806;2022-11-20T03:48:40;3.13;;;2.30;;
35667;SDS011;22158;59.280;17.806;2022-11-20T03:51:07;2.92;;;2.58;;
35667;SDS011;22158;59.280;17.806;2022-11-20T03:53:32;3.60;;;2.33;;
35667;SDS011;22158;59.280;17.806;2022-11-20T03:55:58;2.90;;;2.20;;
35667;SDS011;22158;59.280;17.806;2022-11-20T03:58:24;2.30;;;1.77;;
35667;SDS011;22158;59.280;17.806;2022-11-20T04:00:49;4.90;;;2.20;;
35667;SDS011;22158;59.280;17.806;2022-11-20T04:03:15;10.68;;;2.13;;
35667;SDS011;22158;59.280;17.806;2022-11-20T04:05:41;4.05;;;1.92;;
35667;SDS011;22158;59.280;17.806;2022-11-20T04:08:06;2.60;;;2.03;;
35667;SDS011;22158;59.280;17.806;2022-11-20T04:10:32;2.72;;;2.17;;
35667;SDS011;22158;59.280;17.806;2022-11-20T04:12:58;2.60;;;2.13;;
35667;SDS011;22158;59.280;17.806;2022-11-20T04:15:23;2.78;;;2.33;;
35667;SDS011;22158;59.280;17.806;2022-11-20T04:17:49;3.17;;;2.25;;
35667;SDS011;22158;59.280;17.806;2022-11-20T04:20:15;4.63;;;1.80;;
35667;SDS011;22158;59.280;17.806;2022-11-20T04:22:40;2.92;;;2.03;;
35667;SDS011;22158;59.280;17.806;2022-11-20T04:25:06;2.47;;;2.05;;
35667;SDS011;22158;59.280;17.806;2022-11-20T04:27:32;2.83;;;2.05;;
35667;SDS011;22158;59.280;17.806;2022-11-20T04:29:58;2.83;;;2.20;;
35667;SDS011;22158;59.280;17.806;2022-11-20T04:32:23;2.67;;;1.70;;
35667;SDS011;22158;59.280;17.806;2022-11-20T04:34:49;2.63;;;1.77;;
35667;SDS011;22158;59.280;17.806;2022-11-20T04:37:15;2.97;;;1.80;;
35667;SDS011;22158;59.280;17.806;2022-11-20T04:39:40;2.90;;;2.35;;
35667;SDS011;22158;59.280;17.806;2022-11-20T04:42:07;4.28;;;1.80;;
35667;SDS011;22158;59.280;17.806;2022-11-20T04:44:53;9.13;;;2.10;;
35667;SDS011;22158;59.280;17.806;2022-11-20T04:47:18;2.53;;;1.90;;
35667;SDS011;22158;59.280;17.806;2022-11-20T04:49:44;3.20;;;2.20;;
35667;SDS011;22158;59.280;17.806;2022-11-20T04:52:10;3.17;;;1.92;;
35667;SDS011;22158;59.280;17.806;2022-11-20T04:54:35;2.80;;;1.73;;
35667;SDS011;22158;59.280;17.806;2022-11-20T04:57:01;3.22;;;2.05;;
35667;SDS011;22158;59.280;17.806;2022-11-20T04:59:26;4.07;;;1.38;;
35667;SDS011;22158;59.280;17.806;2022-11-20T05:01:52;1.88;;;1.40;;
35667;SDS011;22158;59.280;17.806;2022-11-20T05:04:18;2.60;;;1.70;;
35667;SDS011;22158;59.280;17.806;2022-11-20T05:06:43;3.83;;;2.20;;
35667;SDS011;22158;59.280;17.806;2022-11-20T05:09:10;3.35;;;1.80;;
35667;SDS011;22158;59.280;17.806;2022-11-20T05:11:36;2.55;;;1.70;;
35667;SDS011;22158;59.280;17.806;2022-11-20T05:14:02;1.85;;;1.70;;
35667;SDS011;22158;59.280;17.806;2022-11-20T05:16:28;2.38;;;1.98;;
35667;SDS011;22158;59.280;17.806;2022-11-20T05:18:53;4.43;;;1.50;;
35667;SDS011;22158;59.280;17.806;2022-11-20T05:21:19;3.85;;;1.50;;
35667;SDS011;22158;59.280;17.806;2022-11-20T05:23:45;2.17;;;1.45;;
35667;SDS011;22158;59.280;17.806;2022-11-20T05:26:15;2.10;;;1.25;;
35667;SDS011;22158;59.280;17.806;2022-11-20T05:28:46;2.67;;;1.63;;
35667;SDS011;22158;59.280;17.806;2022-11-20T05:31:16;2.33;;;1.42;;
35667;SDS011;22158;59.280;17.806;2022-11-20T05:33:47;1.98;;;1.60;;
35667;SDS011;22158;59.280;17.806;2022-11-20T05:36:13;1.52;;;1.40;;
35667;SDS011;22158;59.280;17.806;2022-11-20T05:38:40;3.20;;;1.75;;
35667;SDS011;22158;59.280;17.806;2022-11-20T05:41:16;2.60;;;1.70;;
35667;SDS011;22158;59.280;17.806;2022-11-20T05:43:44;3.83;;;1.55;;
35667;SDS011;22158;59.280;17.806;2022-11-20T05:46:11;2.80;;;1.85;;
35667;SDS011;22158;59.280;17.806;2022-11-20T05:48:40;3.35;;;2.13;;
35667;SDS011;22158;59.280;17.806;2022-11-20T05:51:08;2.95;;;1.45;;
35667;SDS011;22158;59.280;17.806;2022-11-20T05:53:35;2.72;;;1.67;;
35667;SDS011;22158;59.280;17.806;2022-11-20T05:56:02;1.80;;;1.52;;
35667;SDS011;22158;59.280;17.806;2022-11-20T05:58:30;3.45;;;1.80;;
35667;SDS011;22158;59.280;17.806;2022-11-20T06:01:30;2.88;;;1.65;;
35667;SDS011;22158;59.280;17.806;2022-11-20T06:03:50;2.40;;;1.63;;
35667;SDS011;22158;59.280;17.806;2022-11-20T06:06:16;2.55;;;1.60;;
35667;SDS011;22158;59.280;17.806;2022-11-20T06:08:43;2.60;;;1.52;;
35667;SDS011;22158;59.280;17.806;2022-11-20T06:11:09;1.77;;;1.38;;
35667;SDS011;22158;59.280;17.806;2022-11-20T06:13:36;3.63;;;1.48;;
35667;SDS011;22158;59.280;17.806;2022-11-20T06:16:02;1.85;;;1.30;;
35667;SDS011;22158;59.280;17.806;2022-11-20T06:18:30;2.90;;;1.42;;
35667;SDS011;22158;59.280;17.806;2022-11-20T06:21:02;4.57;;;1.98;;
35667;SDS011;22158;59.280;17.806;2022-11-20T06:23:33;3.17;;;1.67;;
35667;SDS011;22158;59.280;17.806;2022-11-20T06:26:04;2.80;;;1.90;;
35667;SDS011;22158;59.280;17.806;2022-11-20T06:28:38;3.00;;;1.90;;
35667;SDS011;22158;59.280;17.806;2022-11-20T06:31:04;2.70;;;1.67;;
35667;SDS011;22158;59.280;17.806;2022-11-20T06:33:31;3.17;;;1.65;;
35667;SDS011;22158;59.280;17.806;2022-11-20T06:35:57;2.03;;;1.50;;
35667;SDS011;22158;59.280;17.806;2022-11-20T06:38:26;3.03;;;1.75;;
35667;SDS011;22158;59.280;17.806;2022-11-20T06:40:52;2.22;;;1.60;;
35667;SDS011;22158;59.280;17.806;2022-11-20T06:43:18;3.15;;;2.03;;
35667;SDS011;22158;59.280;17.806;2022-11-20T06:45:44;2.67;;;1.80;;
35667;SDS011;22158;59.280;17.806;2022-11-20T06:48:10;1.92;;;1.63;;
35667;SDS011;22158;59.280;17.806;2022-11-20T06:50:36;5.95;;;1.60;;
35667;SDS011;22158;59.280;17.806;2022-11-20T06:53:02;3.05;;;2.17;;
35667;SDS011;22158;59.280;17.806;2022-11-20T06:55:29;2.25;;;1.85;;
35667;SDS011;22158;59.280;17.806;2022-11-20T06:57:55;4.25;;;1.92;;
35667;SDS011;22158;59.280;17.806;2022-11-20T07:00:21;4.72;;;1.85;;
35667;SDS011;22158;59.280;17.806;2022-11-20T07:02:46;3.05;;;2.15;;
35667;SDS011;22158;59.280;17.806;2022-11-20T07:05:12;3.78;;;1.77;;
35667;SDS011;22158;59.280;17.806;2022-11-20T07:07:38;2.17;;;1.80;;
35667;SDS011;22158;59.280;17.806;2022-11-20T07:10:03;3.00;;;2.00;;
35667;SDS011;22158;59.280;17.806;2022-11-20T07:12:29;3.80;;;1.65;;
35667;SDS011;22158;59.280;17.806;2022-11-20T07:14:55;3.20;;;1.63;;
35667;SDS011;22158;59.280;17.806;2022-11-20T07:17:21;4.30;;;2.13;;
35667;SDS011;22158;59.280;17.806;2022-11-20T07:19:47;1.73;;;1.48;;
35667;SDS011;22158;59.280;17.806;2022-11-20T07:22:13;2.53;;;1.58;;
35667;SDS011;22158;59.280;17.806;2022-11-20T07:24:38;4.15;;;2.05;;
35667;SDS011;22158;59.280;17.806;2022-11-20T07:27:05;2.15;;;1.33;;
35667;SDS011;22158;59.280;17.806;2022-11-20T07:29:31;1.92;;;1.52;;
35667;SDS011;22158;59.280;17.806;2022-11-20T07:31:56;2.88;;;1.50;;
35667;SDS011;22158;59.280;17.806;2022-11-20T07:34:22;2.78;;;1.67;;
35667;SDS011;22158;59.280;17.806;2022-11-20T07:36:48;5.68;;;1.60;;
35667;SDS011;22158;59.280;17.806;2022-11-20T07:39:14;2.80;;;1.58;;
35667;SDS011;22158;59.280;17.806;2022-11-20T07:41:39;1.75;;;1.48;;
35667;SDS011;22158;59.280;17.806;2022-11-20T07:44:05;5.85;;;1.70;;
35667;SDS011;22158;59.280;17.806;2022-11-20T07:46:31;5.32;;;1.75;;
35667;SDS011;22158;59.280;17.806;2022-11-20T07:48:56;4.70;;;1.90;;
35667;SDS011;22158;59.280;17.806;2022-11-20T07:51:22;2.20;;;1.65;;
35667;SDS011;22158;59.280;17.806;2022-11-20T07:53:50;3.13;;;1.80;;
35667;SDS011;22158;59.280;17.806;2022-11-20T07:56:16;2.05;;;1.55;;
35667;SDS011;22158;59.280;17.806;2022-11-20T07:58:42;3.78;;;1.75;;
35667;SDS011;22158;59.280;17.806;2022-11-20T08:01:07;2.60;;;1.58;;
35667;SDS011;22158;59.280;17.806;2022-11-20T08:03:33;2.25;;;1.52;;
35667;SDS011;22158;59.280;17.806;2022-11-20T08:06:02;1.98;;;1.48;;
35667;SDS011;22158;59.280;17.806;2022-11-20T08:08:29;4.65;;;1.90;;
35667;SDS011;22158;59.280;17.806;2022-11-20T08:10:56;2.67;;;1.65;;
35667;SDS011;22158;59.280;17.806;2022-11-20T08:13:42;3.45;;;1.45;;
35667;SDS011;22158;59.280;17.806;2022-11-20T08:16:27;2.72;;;1.83;;
35667;SDS011;22158;59.280;17.806;2022-11-20T08:18:53;7.85;;;1.98;;
35667;SDS011;22158;59.280;17.806;2022-11-20T08:21:18;3.92;;;2.20;;
35667;SDS011;22158;59.280;17.806;2022-11-20T08:23:44;4.68;;;1.92;;
35667;SDS011;22158;59.280;17.806;2022-11-20T08:26:10;5.95;;;2.35;;
35667;SDS011;22158;59.280;17.806;2022-11-20T08:28:36;2.67;;;1.77;;
35667;SDS011;22158;59.280;17.806;2022-11-20T08:31:02;2.28;;;1.60;;
35667;SDS011;22158;59.280;17.806;2022-11-20T08:33:28;2.15;;;1.38;;
35667;SDS011;22158;59.280;17.806;2022-11-20T08:35:58;3.50;;;1.70;;
35667;SDS011;22158;59.280;17.806;2022-11-20T08:38:25;3.70;;;1.85;;
35667;SDS011;22158;59.280;17.806;2022-11-20T08:40:50;3.10;;;1.80;;
35667;SDS011;22158;59.280;17.806;2022-11-20T08:43:34;3.22;;;1.98;;
35667;SDS011;22158;59.280;17.806;2022-11-20T08:46:00;2.97;;;1.95;;
35667;SDS011;22158;59.280;17.806;2022-11-20T08:48:26;2.30;;;1.70;;
35667;SDS011;22158;59.280;17.806;2022-11-20T08:50:51;2.28;;;1.65;;
35667;SDS011;22158;59.280;17.806;2022-11-20T08:53:17;4.30;;;1.10;;
35667;SDS011;22158;59.280;17.806;2022-11-20T08:55:42;2.38;;;1.50;;
35667;SDS011;22158;59.280;17.806;2022-11-20T08:58:08;2.72;;;2.00;;
35667;SDS011;22158;59.280;17.806;2022-11-20T09:00:34;2.72;;;1.70;;
35667;SDS011;22158;59.280;17.806;2022-11-20T09:03:00;2.72;;;1.58;;
35667;SDS011;22158;59.280;17.806;2022-11-20T09:05:26;3.15;;;1.20;;
35667;SDS011;22158;59.280;17.806;2022-11-20T09:07:55;1.50;;;1.10;;
35667;SDS011;22158;59.280;17.806;2022-11-20T09:10:22;1.48;;;1.02;;
35667;SDS011;22158;59.280;17.806;2022-11-20T09:12:51;1.95;;;1.60;;
35667;SDS011;22158;59.280;17.806;2022-11-20T09:15:17;2.10;;;1.40;;
35667;SDS011;22158;59.280;17.806;2022-11-20T09:17:50;1.85;;;1.33;;
35667;SDS011;22158;59.280;17.806;2022-11-20T09:20:20;1.33;;;1.10;;
35667;SDS011;22158;59.280;17.806;2022-11-20T09:22:46;2.00;;;1.30;;
35667;SDS011;22158;59.280;17.806;2022-11-20T09:25:12;2.13;;;1.73;;
35667;SDS011;22158;59.280;17.806;2022-11-20T09:27:37;2.03;;;1.60;;
35667;SDS011;22158;59.280;17.806;2022-11-20T09:30:03;2.67;;;1.60;;
35667;SDS011;22158;59.280;17.806;2022-11-20T09:32:29;2.58;;;1.70;;
35667;SDS011;22158;59.280;17.806;2022-11-20T09:34:55;7.50;;;1.90;;
35667;SDS011;22158;59.280;17.806;2022-11-20T09:37:20;6.32;;;1.75;;
35667;SDS011;22158;59.280;17.806;2022-11-20T09:39:46;1.63;;;1.30;;
35667;SDS011;22158;59.280;17.806;2022-11-20T09:42:22;3.25;;;1.50;;
35667;SDS011;22158;59.280;17.806;2022-11-20T09:55:49;1.50;;;1.23;;
35667;SDS011;22158;59.280;17.806;2022-11-20T09:58:57;1.77;;;1.40;;
35667;SDS011;22158;59.280;17.806;2022-11-20T10:01:14;1.95;;;1.35;;
35667;SDS011;22158;59.280;17.806;2022-11-20T10:06:15;2.47;;;1.40;;
35667;SDS011;22158;59.280;17.806;2022-11-20T10:08:47;1.48;;;1.15;;
35667;SDS011;22158;59.280;17.806;2022-11-20T10:14:07;1.75;;;1.48;;
35667;SDS011;22158;59.280;17.806;2022-11-20T10:24:57;3.78;;;1.85;;
35667;SDS011;22158;59.280;17.806;2022-11-20T10:27:37;3.05;;;1.60;;
35667;SDS011;22158;59.280;17.806;2022-11-20T10:32:41;2.15;;;1.20;;
35667;SDS011;22158;59.280;17.806;2022-11-20T10:38:12;3.85;;;1.33;;
35667;SDS011;22158;59.280;17.806;2022-11-20T10:40:45;1.98;;;1.15;;
35667;SDS011;22158;59.280;17.806;2022-11-20T10:45:57;2.38;;;1.67;;
35667;SDS011;22158;59.280;17.806;2022-11-20T10:48:25;1.90;;;1.67;;
35667;SDS011;22158;59.280;17.806;2022-11-20T10:50:57;2.00;;;1.50;;
35667;SDS011;22158;59.280;17.806;2022-11-20T10:53:57;2.60;;;1.42;;
35667;SDS011;22158;59.280;17.806;2022-11-20T11:01:58;1.90;;;1.17;;
35667;SDS011;22158;59.280;17.806;2022-11-20T11:06:49;4.25;;;1.90;;
35667;SDS011;22158;59.280;17.806;2022-11-20T11:09:20;4.18;;;1.98;;
35667;SDS011;22158;59.280;17.806;2022-11-20T11:11:57;3.20;;;1.70;;
35667;SDS011;22158;59.280;17.806;2022-11-20T11:14:23;3.28;;;1.40;;
35667;SDS011;22158;59.280;17.806;2022-11-20T11:16:56;3.90;;;1.50;;
35667;SDS011;22158;59.280;17.806;2022-11-20T11:19:22;4.20;;;1.60;;
35667;SDS011;22158;59.280;17.806;2022-11-20T11:21:50;1.90;;;1.70;;
35667;SDS011;22158;59.280;17.806;2022-11-20T11:24:20;2.10;;;1.38;;
35667;SDS011;22158;59.280;17.806;2022-11-20T11:27:01;2.55;;;1.52;;
35667;SDS011;22158;59.280;17.806;2022-11-20T11:29:36;1.75;;;1.35;;
35667;SDS011;22158;59.280;17.806;2022-11-20T11:32:06;1.70;;;1.25;;
35667;SDS011;22158;59.280;17.806;2022-11-20T11:34:58;2.07;;;1.53;;
35667;SDS011;22158;59.280;17.806;2022-11-20T11:37:25;3.10;;;1.58;;
35667;SDS011;22158;59.280;17.806;2022-11-20T11:39:57;3.67;;;1.83;;
35667;SDS011;22158;59.280;17.806;2022-11-20T11:42:23;3.00;;;2.00;;
35667;SDS011;22158;59.280;17.806;2022-11-20T11:44:49;3.13;;;1.40;;
35667;SDS011;22158;59.280;17.806;2022-11-20T11:47:32;4.18;;;1.50;;
35667;SDS011;22158;59.280;17.806;2022-11-20T11:52:45;2.35;;;1.83;;
35667;SDS011;22158;59.280;17.806;2022-11-20T11:58:20;2.20;;;1.58;;
35667;SDS011;22158;59.280;17.806;2022-11-20T12:03:38;2.55;;;1.70;;
35667;SDS011;22158;59.280;17.806;2022-11-20T12:06:13;2.40;;;1.70;;
35667;SDS011;22158;59.280;17.806;2022-11-20T12:11:12;5.47;;;1.40;;
35667;SDS011;22158;59.280;17.806;2022-11-20T12:14:03;6.03;;;1.77;;
35667;SDS011;22158;59.280;17.806;2022-11-20T12:17:02;4.55;;;1.75;;
35667;SDS011;22158;59.280;17.806;2022-11-20T12:19:31;3.08;;;1.65;;
35667;SDS011;22158;59.280;17.806;2022-11-20T12:43:27;4.88;;;2.97;;
35667;SDS011;22158;59.280;17.806;2022-11-20T12:56:55;1.92;;;1.40;;
35667;SDS011;22158;59.280;17.806;2022-11-20T13:08:02;3.23;;;1.83;;
35667;SDS011;22158;59.280;17.806;2022-11-20T13:16:01;2.58;;;1.85;;
35667;SDS011;22158;59.280;17.806;2022-11-20T13:18:39;3.28;;;2.17;;
35667;SDS011;22158;59.280;17.806;2022-11-20T13:21:17;6.00;;;3.03;;
35667;SDS011;22158;59.280;17.806;2022-11-20T13:23:45;4.03;;;2.40;;
35667;SDS011;22158;59.280;17.806;2022-11-20T13:26:18;18.52;;;4.97;;
35667;SDS011;22158;59.280;17.806;2022-11-20T13:28:47;5.63;;;3.60;;
35667;SDS011;22158;59.280;17.806;2022-11-20T13:31:29;7.60;;;3.88;;
35667;SDS011;22158;59.280;17.806;2022-11-20T13:34:00;5.85;;;2.63;;
35667;SDS011;22158;59.280;17.806;2022-11-20T13:36:29;4.38;;;3.65;;
35667;SDS011;22158;59.280;17.806;2022-11-20T13:38:56;6.63;;;2.95;;
35667;SDS011;22158;59.280;17.806;2022-11-20T13:41:29;5.18;;;2.72;;
35667;SDS011;22158;59.280;17.806;2022-11-20T13:46:43;5.15;;;3.10;;
35667;SDS011;22158;59.280;17.806;2022-11-20T13:49:16;8.10;;;3.33;;
35667;SDS011;22158;59.280;17.806;2022-11-20T13:51:43;5.55;;;3.42;;
35667;SDS011;22158;59.280;17.806;2022-11-20T13:59:57;5.35;;;2.83;;
35667;SDS011;22158;59.280;17.806;2022-11-20T14:02:26;7.90;;;4.47;;
35667;SDS011;22158;59.280;17.806;2022-11-20T14:04:56;9.65;;;6.22;;
35667;SDS011;22158;59.280;17.806;2022-11-20T14:07:24;6.13;;;3.50;;
35667;SDS011;22158;59.280;17.806;2022-11-20T14:09:56;6.18;;;2.42;;
35667;SDS011;22158;59.280;17.806;2022-11-20T14:12:23;8.38;;;4.60;;
35667;SDS011;22158;59.280;17.806;2022-11-20T14:14:54;4.75;;;2.40;;
35667;SDS011;22158;59.280;17.806;2022-11-20T14:19:54;5.15;;;2.90;;
35667;SDS011;22158;59.280;17.806;2022-11-20T14:22:24;3.22;;;2.20;;
35667;SDS011;22158;59.280;17.806;2022-11-20T14:27:37;9.43;;;2.92;;
35667;SDS011;22158;59.280;17.806;2022-11-20T14:30:04;5.57;;;2.30;;
35667;SDS011;22158;59.280;17.806;2022-11-20T14:32:37;3.30;;;2.33;;
35667;SDS011;22158;59.280;17.806;2022-11-20T14:35:06;4.78;;;2.80;;
35667;SDS011;22158;59.280;17.806;2022-11-20T14:37:36;5.85;;;2.67;;
35667;SDS011;22158;59.280;17.806;2022-11-20T14:40:23;6.72;;;3.65;;
35667;SDS011;22158;59.280;17.806;2022-11-20T14:42:50;8.90;;;2.67;;
35667;SDS011;22158;59.280;17.806;2022-11-20T14:45:16;6.50;;;2.35;;
35667;SDS011;22158;59.280;17.806;2022-11-20T14:47:43;7.28;;;3.55;;
35667;SDS011;22158;59.280;17.806;2022-11-20T14:50:13;2.83;;;1.80;;
35667;SDS011;22158;59.280;17.806;2022-11-20T14:52:55;3.97;;;2.03;;
35667;SDS011;22158;59.280;17.806;2022-11-20T14:55:40;3.63;;;2.17;;
35667;SDS011;22158;59.280;17.806;2022-11-20T14:58:22;5.40;;;2.15;;
35667;SDS011;22158;59.280;17.806;2022-11-20T15:03:37;5.47;;;2.15;;
35667;SDS011;22158;59.280;17.806;2022-11-20T15:06:05;3.92;;;2.50;;
35667;SDS011;22158;59.280;17.806;2022-11-20T15:08:33;4.50;;;2.00;;
35667;SDS011;22158;59.280;17.806;2022-11-20T15:10:59;3.53;;;2.55;;
35667;SDS011;22158;59.280;17.806;2022-11-20T15:13:26;2.67;;;1.98;;
35667;SDS011;22158;59.280;17.806;2022-11-20T15:15:57;3.80;;;2.15;;
35667;SDS011;22158;59.280;17.806;2022-11-20T15:18:29;5.47;;;2.08;;
35667;SDS011;22158;59.280;17.806;2022-11-20T15:21:02;4.03;;;2.45;;
35667;SDS011;22158;59.280;17.806;2022-11-20T15:23:29;2.78;;;1.95;;
35667;SDS011;22158;59.280;17.806;2022-11-20T15:25:54;3.20;;;2.00;;
35667;SDS011;22158;59.280;17.806;2022-11-20T15:28:25;4.47;;;2.53;;
35667;SDS011;22158;59.280;17.806;2022-11-20T15:30:57;3.17;;;2.05;;
35667;SDS011;22158;59.280;17.806;2022-11-20T15:33:22;4.82;;;2.53;;
35667;SDS011;22158;59.280;17.806;2022-11-20T15:35:48;3.47;;;1.95;;
35667;SDS011;22158;59.280;17.806;2022-11-20T15:38:14;3.90;;;2.30;;
35667;SDS011;22158;59.280;17.806;2022-11-20T15:40:40;4.43;;;2.20;;
35667;SDS011;22158;59.280;17.806;2022-11-20T15:43:06;3.15;;;2.13;;
35667;SDS011;22158;59.280;17.806;2022-11-20T15:45:33;2.72;;;2.25;;
35667;SDS011;22158;59.280;17.806;2022-11-20T15:48:04;2.97;;;2.08;;
35667;SDS011;22158;59.280;17.806;2022-11-20T15:50:37;4.82;;;2.42;;
35667;SDS011;22158;59.280;17.806;2022-11-20T15:53:04;3.70;;;2.63;;
35667;SDS011;22158;59.280;17.806;2022-11-20T15:55:30;7.30;;;2.65;;
35667;SDS011;22158;59.280;17.806;2022-11-20T15:57:56;3.42;;;2.38;;
35667;SDS011;22158;59.280;17.806;2022-11-20T16:00:22;4.50;;;2.10;;
35667;SDS011;22158;59.280;17.806;2022-11-20T16:02:47;3.38;;;2.55;;
35667;SDS011;22158;59.280;17.806;2022-11-20T16:05:13;5.20;;;2.42;;
35667;SDS011;22158;59.280;17.806;2022-11-20T16:07:40;5.38;;;2.75;;
35667;SDS011;22158;59.280;17.806;2022-11-20T16:10:06;5.90;;;3.47;;
35667;SDS011;22158;59.280;17.806;2022-11-20T16:12:32;5.30;;;2.83;;
35667;SDS011;22158;59.280;17.806;2022-11-20T16:15:16;4.20;;;2.70;;
35667;SDS011;22158;59.280;17.806;2022-11-20T16:18:00;5.28;;;3.05;;
35667;SDS011;22158;59.280;17.806;2022-11-20T16:20:26;4.72;;;2.75;;
35667;SDS011;22158;59.280;17.806;2022-11-20T16:22:52;5.28;;;2.72;;
35667;SDS011;22158;59.280;17.806;2022-11-20T16:25:17;10.18;;;2.72;;
35667;SDS011;22158;59.280;17.806;2022-11-20T16:27:43;7.00;;;3.22;;
35667;SDS011;22158;59.280;17.806;2022-11-20T16:30:09;4.32;;;2.35;;
35667;SDS011;22158;59.280;17.806;2022-11-20T16:32:35;3.95;;;2.30;;
35667;SDS011;22158;59.280;17.806;2022-11-20T16:35:00;2.95;;;2.53;;
35667;SDS011;22158;59.280;17.806;2022-11-20T16:37:27;4.32;;;2.92;;
35667;SDS011;22158;59.280;17.806;2022-11-20T16:39:52;3.47;;;2.88;;
35667;SDS011;22158;59.280;17.806;2022-11-20T16:42:18;6.68;;;3.20;;
35667;SDS011;22158;59.280;17.806;2022-11-20T16:44:45;5.88;;;3.00;;